sensor_id;sensor_type;location;lat;lon;timestamp;pressure;altitude;pressure_sealevel;temperature;humidity
54876;BME280;40764;48.472;8.166;2022-12-20T00:00:42;98742.34;;;2.95;100.00
54876;BME280;40764;48.472;8.166;2022-12-20T00:06:43;98722.63;;;3.30;100.00
54876;BME280;40764;48.472;8.166;2022-12-20T00:12:44;98732.84;;;3.04;100.00
54876;BME280;40764;48.472;8.166;2022-12-20T00:18:44;98733.97;;;2.73;100.00
54876;BME280;40764;48.472;8.166;2022-12-20T00:24:45;98713.47;;;2.96;100.00
54876;BME280;40764;48.472;8.166;2022-12-20T00:30:45;98707.34;;;3.00;100.00
54876;BME280;40764;48.472;8.166;2022-12-20T00:36:45;98709.56;;;3.15;100.00
54876;BME280;40764;48.472;8.166;2022-12-20T00:42:46;98708.97;;;3.36;100.00
54876;BME280;40764;48.472;8.166;2022-12-20T00:48:46;98701.59;;;2.97;100.00
54876;BME280;40764;48.472;8.166;2022-12-20T00:54:46;98709.56;;;3.15;100.00
54876;BME280;40764;48.472;8.166;2022-12-20T01:00:47;98707.59;;;3.22;100.00
54876;BME280;40764;48.472;8.166;2022-12-20T01:06:47;98697.25;;;3.07;100.00
54876;BME280;40764;48.472;8.166;2022-12-20T01:12:47;98683.72;;;3.31;100.00
54876;BME280;40764;48.472;8.166;2022-12-20T01:18:48;98688.06;;;3.43;100.00
54876;BME280;40764;48.472;8.166;2022-12-20T01:24:49;98679.84;;;3.38;100.00
54876;BME280;40764;48.472;8.166;2022-12-20T01:30:50;98662.34;;;3.29;100.00
54876;BME280;40764;48.472;8.166;2022-12-20T01:36:50;98679.94;;;3.43;100.00
54876;BME280;40764;48.472;8.166;2022-12-20T01:42:50;98663.41;;;3.17;100.00
54876;BME280;40764;48.472;8.166;2022-12-20T01:48:55;98666.00;;;3.23;100.00
54876;BME280;40764;48.472;8.166;2022-12-20T01:55:11;98658.09;;;3.45;100.00
54876;BME280;40764;48.472;8.166;2022-12-20T02:01:14;98656.56;;;3.49;100.00
54876;BME280;40764;48.472;8.166;2022-12-20T02:07:19;98651.50;;;3.53;100.00
54876;BME280;40764;48.472;8.166;2022-12-20T02:13:34;98627.06;;;3.48;100.00
54876;BME280;40764;48.472;8.166;2022-12-20T02:26:30;98617.19;;;3.41;100.00
54876;BME280;40764;48.472;8.166;2022-12-20T02:39:15;98602.66;;;3.71;100.00
54876;BME280;40764;48.472;8.166;2022-12-20T02:45:16;98596.81;;;3.62;100.00
54876;BME280;40764;48.472;8.166;2022-12-20T02:51:21;98599.50;;;3.91;100.00
54876;BME280;40764;48.472;8.166;2022-12-20T02:57:32;98612.72;;;3.87;100.00
54876;BME280;40764;48.472;8.166;2022-12-20T03:03:34;98609.59;;;3.95;100.00
54876;BME280;40764;48.472;8.166;2022-12-20T03:09:38;98595.09;;;4.01;100.00
54876;BME280;40764;48.472;8.166;2022-12-20T03:15:38;98582.00;;;4.10;100.00
54876;BME280;40764;48.472;8.166;2022-12-20T03:21:39;98563.88;;;4.27;100.00
54876;BME280;40764;48.472;8.166;2022-12-20T03:27:40;98557.81;;;4.20;100.00
54876;BME280;40764;48.472;8.166;2022-12-20T03:33:40;98560.53;;;4.20;100.00
54876;BME280;40764;48.472;8.166;2022-12-20T03:39:41;98566.81;;;3.92;100.00
54876;BME280;40764;48.472;8.166;2022-12-20T03:45:41;98569.78;;;4.08;100.00
54876;BME280;40764;48.472;8.166;2022-12-20T03:51:42;98564.38;;;4.08;100.00
54876;BME280;40764;48.472;8.166;2022-12-20T03:57:42;98572.34;;;4.14;100.00
54876;BME280;40764;48.472;8.166;2022-12-20T04:03:42;98550.69;;;4.14;100.00
54876;BME280;40764;48.472;8.166;2022-12-20T04:09:43;98559.13;;;4.18;100.00
54876;BME280;40764;48.472;8.166;2022-12-20T04:15:43;98553.81;;;4.23;100.00
54876;BME280;40764;48.472;8.166;2022-12-20T04:21:44;98553.56;;;4.24;100.00
54876;BME280;40764;48.472;8.166;2022-12-20T04:27:44;98542.56;;;4.31;100.00
54876;BME280;40764;48.472;8.166;2022-12-20T04:33:45;98537.88;;;4.26;100.00
54876;BME280;40764;48.472;8.166;2022-12-20T04:39:47;98528.28;;;4.02;100.00
54876;BME280;40764;48.472;8.166;2022-12-20T04:45:50;98530.09;;;3.96;100.00
54876;BME280;40764;48.472;8.166;2022-12-20T04:51:51;98532.31;;;4.33;100.00
54876;BME280;40764;48.472;8.166;2022-12-20T04:57:54;98523.28;;;3.94;100.00
54876;BME280;40764;48.472;8.166;2022-12-20T05:03:55;98510.19;;;4.19;100.00
54876;BME280;40764;48.472;8.166;2022-12-20T05:09:58;98526.44;;;4.36;100.00
54876;BME280;40764;48.472;8.166;2022-12-20T05:15:59;98531.50;;;4.16;100.00
54876;BME280;40764;48.472;8.166;2022-12-20T05:22:00;98523.78;;;4.24;100.00
54876;BME280;40764;48.472;8.166;2022-12-20T05:28:19;98504.53;;;4.21;100.00
54876;BME280;40764;48.472;8.166;2022-12-20T05:34:19;98510.06;;;4.48;100.00
54876;BME280;40764;48.472;8.166;2022-12-20T05:40:23;98512.16;;;4.62;100.00
54876;BME280;40764;48.472;8.166;2022-12-20T05:46:23;98515.25;;;4.32;100.00
54876;BME280;40764;48.472;8.166;2022-12-20T05:52:24;98517.50;;;4.35;100.00
54876;BME280;40764;48.472;8.166;2022-12-20T05:58:25;98515.78;;;4.68;100.00
54876;BME280;40764;48.472;8.166;2022-12-20T06:04:25;98516.81;;;4.45;100.00
54876;BME280;40764;48.472;8.166;2022-12-20T06:10:26;98503.16;;;4.57;100.00
54876;BME280;40764;48.472;8.166;2022-12-20T06:16:26;98498.75;;;4.51;100.00
54876;BME280;40764;48.472;8.166;2022-12-20T06:22:27;98501.47;;;4.51;100.00
54876;BME280;40764;48.472;8.166;2022-12-20T06:28:29;98501.88;;;4.81;100.00
54876;BME280;40764;48.472;8.166;2022-12-20T06:34:31;98503.84;;;4.86;100.00
54876;BME280;40764;48.472;8.166;2022-12-20T06:40:31;98503.41;;;4.55;100.00
54876;BME280;40764;48.472;8.166;2022-12-20T06:53:28;98507.16;;;4.71;100.00
54876;BME280;40764;48.472;8.166;2022-12-20T06:59:29;98512.97;;;4.80;100.00
54876;BME280;40764;48.472;8.166;2022-12-20T07:05:29;98509.91;;;4.93;100.00
54876;BME280;40764;48.472;8.166;2022-12-20T07:11:29;98508.81;;;4.72;100.00
54876;BME280;40764;48.472;8.166;2022-12-20T07:17:30;98507.94;;;4.66;100.00
54876;BME280;40764;48.472;8.166;2022-12-20T07:23:41;98499.53;;;4.90;100.00
54876;BME280;40764;48.472;8.166;2022-12-20T07:29:41;98503.72;;;4.97;100.00
54876;BME280;40764;48.472;8.166;2022-12-20T07:35:43;98490.28;;;4.86;100.00
54876;BME280;40764;48.472;8.166;2022-12-20T07:41:44;98466.09;;;5.01;100.00
54876;BME280;40764;48.472;8.166;2022-12-20T07:47:45;98456.09;;;5.02;100.00
54876;BME280;40764;48.472;8.166;2022-12-20T07:53:48;98479.69;;;5.28;100.00
54876;BME280;40764;48.472;8.166;2022-12-20T07:59:53;98461.81;;;5.05;100.00
54876;BME280;40764;48.472;8.166;2022-12-20T08:05:57;98450.53;;;4.91;100.00
54876;BME280;40764;48.472;8.166;2022-12-20T08:12:02;98450.66;;;5.23;100.00
54876;BME280;40764;48.472;8.166;2022-12-20T08:18:02;98453.59;;;5.49;100.00
54876;BME280;40764;48.472;8.166;2022-12-20T08:24:06;98441.38;;;5.46;100.00
54876;BME280;40764;48.472;8.166;2022-12-20T08:30:07;98457.84;;;5.40;100.00
54876;BME280;40764;48.472;8.166;2022-12-20T08:36:11;98434.56;;;5.44;100.00
54876;BME280;40764;48.472;8.166;2022-12-20T08:42:12;98421.41;;;5.52;100.00
54876;BME280;40764;48.472;8.166;2022-12-20T08:48:13;98432.97;;;5.75;100.00
54876;BME280;40764;48.472;8.166;2022-12-20T08:54:49;98431.31;;;6.01;100.00
54876;BME280;40764;48.472;8.166;2022-12-20T09:00:50;98413.38;;;6.00;100.00
54876;BME280;40764;48.472;8.166;2022-12-20T09:06:55;98422.97;;;6.07;100.00
54876;BME280;40764;48.472;8.166;2022-12-20T09:12:56;98415.00;;;6.38;100.00
54876;BME280;40764;48.472;8.166;2022-12-20T09:18:58;98426.63;;;6.28;100.00
54876;BME280;40764;48.472;8.166;2022-12-20T09:25:01;98425.38;;;6.46;100.00
54876;BME280;40764;48.472;8.166;2022-12-20T09:31:05;98419.81;;;6.78;100.00
54876;BME280;40764;48.472;8.166;2022-12-20T09:37:32;98415.56;;;6.97;100.00
54876;BME280;40764;48.472;8.166;2022-12-20T09:43:33;98424.28;;;7.14;100.00
54876;BME280;40764;48.472;8.166;2022-12-20T09:56:19;98408.22;;;7.03;100.00
54876;BME280;40764;48.472;8.166;2022-12-20T10:02:28;98413.66;;;6.98;100.00
54876;BME280;40764;48.472;8.166;2022-12-20T10:21:49;98402.53;;;7.09;100.00
54876;BME280;40764;48.472;8.166;2022-12-20T10:27:57;98380.34;;;7.53;100.00
54876;BME280;40764;48.472;8.166;2022-12-20T10:34:13;98378.69;;;7.83;100.00
54876;BME280;40764;48.472;8.166;2022-12-20T10:40:29;98369.72;;;7.67;100.00
54876;BME280;40764;48.472;8.166;2022-12-20T10:46:40;98355.28;;;7.61;100.00
54876;BME280;40764;48.472;8.166;2022-12-20T10:52:42;98351.75;;;7.86;100.00
54876;BME280;40764;48.472;8.166;2022-12-20T10:58:51;98341.13;;;7.95;100.00
54876;BME280;40764;48.472;8.166;2022-12-20T11:11:21;98339.69;;;8.23;100.00
54876;BME280;40764;48.472;8.166;2022-12-20T11:17:40;98306.78;;;8.09;100.00
54876;BME280;40764;48.472;8.166;2022-12-20T11:30:45;98293.31;;;8.53;100.00
54876;BME280;40764;48.472;8.166;2022-12-20T11:37:08;98284.34;;;8.97;99.23
54876;BME280;40764;48.472;8.166;2022-12-20T11:43:38;98278.53;;;9.09;99.60
54876;BME280;40764;48.472;8.166;2022-12-20T11:49:49;98279.25;;;9.19;99.13
54876;BME280;40764;48.472;8.166;2022-12-20T11:56:04;98289.22;;;9.39;98.35
54876;BME280;40764;48.472;8.166;2022-12-20T12:09:14;98239.03;;;9.06;98.99
54876;BME280;40764;48.472;8.166;2022-12-20T12:15:31;98213.16;;;9.32;98.84
54876;BME280;40764;48.472;8.166;2022-12-20T12:21:39;98196.75;;;9.38;97.63
54876;BME280;40764;48.472;8.166;2022-12-20T12:27:43;98209.91;;;9.30;98.94
54876;BME280;40764;48.472;8.166;2022-12-20T12:34:13;98207.59;;;9.43;98.90
54876;BME280;40764;48.472;8.166;2022-12-20T12:47:01;98200.38;;;9.28;98.51
54876;BME280;40764;48.472;8.166;2022-12-20T13:06:50;98176.94;;;10.46;88.79
54876;BME280;40764;48.472;8.166;2022-12-20T13:13:13;98165.63;;;10.53;87.50
54876;BME280;40764;48.472;8.166;2022-12-20T13:25:28;98144.31;;;10.12;91.35
54876;BME280;40764;48.472;8.166;2022-12-20T13:31:30;98136.38;;;10.11;91.56
54876;BME280;40764;48.472;8.166;2022-12-20T13:43:51;98127.56;;;10.19;90.94
54876;BME280;40764;48.472;8.166;2022-12-20T13:49:53;98109.44;;;10.04;91.14
54876;BME280;40764;48.472;8.166;2022-12-20T13:55:54;98104.88;;;10.00;91.65
54876;BME280;40764;48.472;8.166;2022-12-20T14:01:57;98124.50;;;10.02;91.47
54876;BME280;40764;48.472;8.166;2022-12-20T14:08:01;98124.34;;;9.93;92.06
54876;BME280;40764;48.472;8.166;2022-12-20T14:14:03;98133.13;;;9.90;92.54
54876;BME280;40764;48.472;8.166;2022-12-20T14:20:36;98120.59;;;9.65;93.14
54876;BME280;40764;48.472;8.166;2022-12-20T14:26:41;98123.53;;;9.45;93.99
54876;BME280;40764;48.472;8.166;2022-12-20T14:32:48;98116.66;;;9.28;94.84
54876;BME280;40764;48.472;8.166;2022-12-20T14:38:50;98116.59;;;9.34;94.73
54876;BME280;40764;48.472;8.166;2022-12-20T14:45:01;98109.44;;;9.38;94.37
54876;BME280;40764;48.472;8.166;2022-12-20T14:51:03;98102.75;;;9.25;94.61
54876;BME280;40764;48.472;8.166;2022-12-20T14:57:10;98111.31;;;9.42;93.53
54876;BME280;40764;48.472;8.166;2022-12-20T15:03:16;98109.97;;;9.40;93.36
54876;BME280;40764;48.472;8.166;2022-12-20T15:09:17;98100.56;;;9.27;93.97
54876;BME280;40764;48.472;8.166;2022-12-20T15:15:18;98118.03;;;8.97;94.81
54876;BME280;40764;48.472;8.166;2022-12-20T15:21:28;98127.22;;;9.06;95.01
54876;BME280;40764;48.472;8.166;2022-12-20T15:27:29;98110.81;;;8.82;94.48
54876;BME280;40764;48.472;8.166;2022-12-20T15:33:33;98126.69;;;8.75;95.01
54876;BME280;40764;48.472;8.166;2022-12-20T15:39:34;98130.97;;;8.81;94.07
54876;BME280;40764;48.472;8.166;2022-12-20T15:45:35;98131.69;;;8.58;95.64
54876;BME280;40764;48.472;8.166;2022-12-20T15:51:36;98117.22;;;8.67;94.69
54876;BME280;40764;48.472;8.166;2022-12-20T15:57:42;98125.16;;;8.59;94.72
54876;BME280;40764;48.472;8.166;2022-12-20T16:03:42;98132.88;;;8.47;94.41
54876;BME280;40764;48.472;8.166;2022-12-20T16:09:43;98119.03;;;8.33;96.12
54876;BME280;40764;48.472;8.166;2022-12-20T16:15:43;98117.69;;;8.30;96.60
54876;BME280;40764;48.472;8.166;2022-12-20T16:21:48;98116.53;;;8.47;95.37
54876;BME280;40764;48.472;8.166;2022-12-20T16:27:49;98117.31;;;8.52;94.96
54876;BME280;40764;48.472;8.166;2022-12-20T16:33:51;98106.31;;;8.67;93.61
54876;BME280;40764;48.472;8.166;2022-12-20T16:39:51;98099.94;;;8.43;94.21
54876;BME280;40764;48.472;8.166;2022-12-20T16:45:51;98096.34;;;8.53;94.12
54876;BME280;40764;48.472;8.166;2022-12-20T16:51:52;98087.66;;;8.80;93.39
54876;BME280;40764;48.472;8.166;2022-12-20T16:57:53;98081.00;;;8.91;92.21
54876;BME280;40764;48.472;8.166;2022-12-20T17:03:53;98073.34;;;8.93;92.12
54876;BME280;40764;48.472;8.166;2022-12-20T17:09:53;98083.50;;;8.87;92.66
54876;BME280;40764;48.472;8.166;2022-12-20T17:15:54;98077.16;;;8.68;93.26
54876;BME280;40764;48.472;8.166;2022-12-20T17:21:54;98074.03;;;8.80;94.27
54876;BME280;40764;48.472;8.166;2022-12-20T17:27:55;98068.91;;;9.02;92.34
54876;BME280;40764;48.472;8.166;2022-12-20T17:34:01;98087.56;;;8.90;93.35
54876;BME280;40764;48.472;8.166;2022-12-20T17:40:02;98081.69;;;8.78;93.61
54876;BME280;40764;48.472;8.166;2022-12-20T17:46:03;98073.16;;;8.55;94.81
54876;BME280;40764;48.472;8.166;2022-12-20T17:52:03;98084.41;;;8.78;93.98
54876;BME280;40764;48.472;8.166;2022-12-20T17:58:04;98079.25;;;8.76;93.58
54876;BME280;40764;48.472;8.166;2022-12-20T18:04:06;98087.22;;;8.67;93.80
54876;BME280;40764;48.472;8.166;2022-12-20T18:10:07;98092.69;;;8.67;94.20
54876;BME280;40764;48.472;8.166;2022-12-20T18:16:08;98099.00;;;8.58;94.55
54876;BME280;40764;48.472;8.166;2022-12-20T18:22:08;98098.53;;;8.51;94.79
54876;BME280;40764;48.472;8.166;2022-12-20T18:28:09;98094.94;;;8.55;94.47
54876;BME280;40764;48.472;8.166;2022-12-20T18:34:09;98088.53;;;8.41;94.67
54876;BME280;40764;48.472;8.166;2022-12-20T18:40:10;98076.72;;;8.51;94.49
54876;BME280;40764;48.472;8.166;2022-12-20T18:46:13;98092.88;;;8.42;95.40
54876;BME280;40764;48.472;8.166;2022-12-20T18:52:14;98087.34;;;8.52;94.69
54876;BME280;40764;48.472;8.166;2022-12-20T18:58:14;98068.69;;;8.64;94.26
54876;BME280;40764;48.472;8.166;2022-12-20T19:04:15;98071.53;;;8.54;94.44
54876;BME280;40764;48.472;8.166;2022-12-20T19:10:15;98054.78;;;8.66;93.88
54876;BME280;40764;48.472;8.166;2022-12-20T19:16:19;98059.75;;;8.59;94.44
54876;BME280;40764;48.472;8.166;2022-12-20T19:22:20;98056.22;;;8.58;94.58
54876;BME280;40764;48.472;8.166;2022-12-20T19:28:20;98066.59;;;8.56;94.53
54876;BME280;40764;48.472;8.166;2022-12-20T19:34:21;98077.16;;;8.68;94.04
54876;BME280;40764;48.472;8.166;2022-12-20T19:40:21;98086.66;;;8.71;94.92
54876;BME280;40764;48.472;8.166;2022-12-20T19:46:22;98105.34;;;8.48;96.48
54876;BME280;40764;48.472;8.166;2022-12-20T19:52:25;98104.53;;;8.03;98.23
54876;BME280;40764;48.472;8.166;2022-12-20T19:58:25;98112.66;;;8.14;99.46
54876;BME280;40764;48.472;8.166;2022-12-20T20:04:26;98117.84;;;8.10;100.00
54876;BME280;40764;48.472;8.166;2022-12-20T20:10:27;98111.50;;;8.20;100.00
54876;BME280;40764;48.472;8.166;2022-12-20T20:16:29;98104.72;;;8.17;100.00
54876;BME280;40764;48.472;8.166;2022-12-20T20:22:30;98112.56;;;8.24;100.00
54876;BME280;40764;48.472;8.166;2022-12-20T20:28:30;98121.28;;;8.26;100.00
54876;BME280;40764;48.472;8.166;2022-12-20T20:34:30;98128.59;;;8.30;100.00
54876;BME280;40764;48.472;8.166;2022-12-20T20:40:31;98121.66;;;8.04;100.00
54876;BME280;40764;48.472;8.166;2022-12-20T20:46:32;98121.91;;;8.07;100.00
54876;BME280;40764;48.472;8.166;2022-12-20T20:52:32;98126.00;;;8.10;100.00
54876;BME280;40764;48.472;8.166;2022-12-20T20:58:33;98112.91;;;8.17;100.00
54876;BME280;40764;48.472;8.166;2022-12-20T21:04:34;98114.16;;;8.30;100.00
54876;BME280;40764;48.472;8.166;2022-12-20T21:10:34;98106.31;;;8.23;100.00
54876;BME280;40764;48.472;8.166;2022-12-20T21:16:35;98093.31;;;8.15;100.00
54876;BME280;40764;48.472;8.166;2022-12-20T21:22:36;98101.97;;;8.22;100.00
54876;BME280;40764;48.472;8.166;2022-12-20T21:28:37;98092.78;;;8.13;100.00
54876;BME280;40764;48.472;8.166;2022-12-20T21:34:37;98095.00;;;8.01;100.00
54876;BME280;40764;48.472;8.166;2022-12-20T21:40:37;98104.88;;;7.92;100.00
54876;BME280;40764;48.472;8.166;2022-12-20T21:46:37;98091.16;;;8.07;100.00
54876;BME280;40764;48.472;8.166;2022-12-20T21:52:38;98084.13;;;8.01;100.00
54876;BME280;40764;48.472;8.166;2022-12-20T21:58:40;98083.78;;;8.13;100.00
54876;BME280;40764;48.472;8.166;2022-12-20T22:04:40;98090.00;;;8.18;100.00
54876;BME280;40764;48.472;8.166;2022-12-20T22:10:41;98083.38;;;8.34;100.00
54876;BME280;40764;48.472;8.166;2022-12-20T22:16:41;98084.13;;;8.45;100.00
54876;BME280;40764;48.472;8.166;2022-12-20T22:22:42;98085.53;;;8.43;100.00
54876;BME280;40764;48.472;8.166;2022-12-20T22:28:51;98100.25;;;8.42;100.00
54876;BME280;40764;48.472;8.166;2022-12-20T22:34:52;98102.63;;;8.48;100.00
54876;BME280;40764;48.472;8.166;2022-12-20T22:40:52;98111.06;;;8.52;100.00
54876;BME280;40764;48.472;8.166;2022-12-20T22:46:57;98110.84;;;8.43;100.00
54876;BME280;40764;48.472;8.166;2022-12-20T22:52:58;98093.38;;;8.49;100.00
54876;BME280;40764;48.472;8.166;2022-12-20T22:58:58;98105.22;;;8.68;100.00
54876;BME280;40764;48.472;8.166;2022-12-20T23:04:58;98110.50;;;8.84;100.00
54876;BME280;40764;48.472;8.166;2022-12-20T23:10:59;98096.03;;;8.88;100.00
54876;BME280;40764;48.472;8.166;2022-12-20T23:17:18;98097.78;;;8.74;100.00
54876;BME280;40764;48.472;8.166;2022-12-20T23:23:19;98095.22;;;8.88;100.00
54876;BME280;40764;48.472;8.166;2022-12-20T23:29:19;98106.28;;;9.02;100.00
54876;BME280;40764;48.472;8.166;2022-12-20T23:35:19;98099.50;;;8.99;100.00
54876;BME280;40764;48.472;8.166;2022-12-20T23:41:20;98106.28;;;9.02;100.00
54876;BME280;40764;48.472;8.166;2022-12-20T23:47:20;98102.25;;;8.94;100.00
54876;BME280;40764;48.472;8.166;2022-12-20T23:53:21;98107.38;;;9.24;100.00
54876;BME280;40764;48.472;8.166;2022-12-20T23:59:21;98106.47;;;9.34;100.00
